Flight Track Log - Related Links

Times and Time Zones

All times are in EDT time to prevent confusion due to time zone crossing. See the N682RW flight status page for this flight to view local times or setup timezone preferences in your user account.

Time Position Orientation Groundspeed Altitude Reporting Facility
EDT Latitude Longitude Course Direction KTS MPH feet Rate Location/Type
Thu 02:45:09 AM 44.8667 -93.1500 119° Southeast 182 209 2,800  Level Minneapolis TRACON
Thu 02:46:09 AM 44.8333 -93.0667 119° Southeast 248 285 4,300 1,938 Climbing Minneapolis TRACON
Thu 02:47:19 AM 44.7781 -92.9953 137° Southeast 267 307 7,000 2,308 Climbing Minneapolis Center
Thu 02:48:19 AM 44.7311 -92.9081 127° Southeast 278 320 9,300 2,150 Climbing Minneapolis Center
Thu 02:49:19 AM 44.6686 -92.8358 141° Southeast 294 338 11,300 1,587 Climbing Minneapolis Center
Thu 02:50:20 AM 44.5872 -92.7775 153° Southeast 327 376 12,500 1,587 Climbing Minneapolis Center
Thu 02:51:20 AM 44.5000 -92.7050 149° Southeast 360 414 14,500 1,950 Climbing Minneapolis Center
Thu 02:52:20 AM 44.4097 -92.6281 149° Southeast 378 435 16,400 1,900 Climbing Minneapolis Center
Thu 02:53:20 AM 44.3167 -92.5531 150° Southeast 386 444 18,300 1,785 Climbing Minneapolis Center
Thu 02:54:21 AM 44.2225 -92.4747 149° Southeast 393 452 20,000 1,587 Climbing Minneapolis Center
Thu 02:55:21 AM 44.1253 -92.3953 150° Southeast 403 464 21,500 1,350 Climbing Minneapolis Center
Thu 02:56:21 AM 44.0258 -92.3142 150° Southeast 413 475 22,700 1,339 Climbing Minneapolis Center
Thu 02:57:22 AM 43.9014 -92.2133 150° Southeast 430 495 24,200 1,289 Climbing Minneapolis Center
Thu 02:58:22 AM 43.8044 -92.1317 149° Southeast 439 505 25,300 1,050 Climbing Minneapolis Center
Thu 02:59:22 AM 43.6961 -92.0439 150° Southeast 452 520 26,300 1,041 Climbing Minneapolis Center
Thu 03:00:23 AM 43.5861 -91.9553 150° Southeast 463 533 27,400 992 Climbing Minneapolis Center
Thu 03:01:23 AM 43.4753 -91.8672 150° Southeast 463 533 28,300 796 Climbing Minneapolis Center
Thu 03:03:24 AM 43.2453 -91.6839 150° Southeast 482 555 29,800 829 Climbing Minneapolis Center
Thu 03:04:24 AM 43.1275 -91.5900 150° Southeast 488 562 30,800 1,000 Climbing Minneapolis Center
Thu 03:05:24 AM 43.0103 -91.4961 150° Southeast 488 562 31,800 744 Climbing Minneapolis Center
Thu 03:06:25 AM 42.8925 -91.4033 150° Southeast 485 558 32,300 446 Climbing Minneapolis Center
Thu 03:07:25 AM 42.7728 -91.3094 150° Southeast 489 563 32,700 350 Climbing Minneapolis Center
Thu 03:08:25 AM 42.6531 -91.2175 151° Southeast 491 565 33,000 150 Climbing Minneapolis Center
Thu 03:09:25 AM 42.5347 -91.1269 151° Southeast 490 564 33,000  Level Minneapolis Center
Thu 03:10:26 AM 42.4175 -91.0350 150° Southeast 489 563 33,000  Level Minneapolis Center
Thu 03:11:28 AM 42.3000 -90.9447 150° Southeast 492 566 33,000  Level Chicago Center
Thu 03:12:28 AM 42.1819 -90.8547 151° Southeast 491 565 33,000  Level Chicago Center
Thu 03:13:29 AM 42.0642 -90.7644 150° Southeast 490 564 33,000  Level Chicago Center
Thu 03:14:29 AM 41.9206 -90.6578 151° Southeast 495 570 33,000  Level Chicago Center
Thu 03:15:29 AM 41.8014 -90.5675 151° Southeast 495 570 33,000  Level Chicago Center
Thu 03:16:29 AM 41.6864 -90.4817 151° Southeast 495 570 33,000  Level Chicago Center
Thu 03:17:29 AM 41.5664 -90.3922 151° Southeast 493 567 33,000  Level Chicago Center
Thu 03:18:30 AM 41.4475 -90.3028 151° Southeast 492 566 33,000  Level Chicago Center
Thu 03:19:30 AM 41.3283 -90.2133 151° Southeast 491 565 33,000  Level Chicago Center
Thu 03:20:30 AM 41.2086 -90.1253 151° Southeast 491 565 33,000  Level Chicago Center
Thu 03:21:30 AM 41.0867 -90.0361 151° Southeast 498 573 33,000  Level Chicago Center
Thu 03:22:31 AM 40.9692 -89.9483 151° Southeast 499 574 33,000  Level Chicago Center
Thu 03:23:31 AM 40.8489 -89.8603 151° Southeast 498 573 33,000  Level Chicago Center
Thu 03:24:31 AM 40.7272 -89.7731 151° Southeast 501 577 33,000  Level Chicago Center
Thu 03:25:31 AM 40.6019 -89.6817 151° Southeast 509 586 33,000  Level Chicago Center
Thu 03:26:31 AM 40.4803 -89.5944 151° Southeast 506 582 33,000  Level Chicago Center
Thu 03:27:32 AM 40.3639 -89.5106 151° Southeast 501 577 33,000  Level Chicago Center
Thu 03:28:32 AM 40.2419 -89.4247 152° Southeast 500 575 33,000  Level Chicago Center
Thu 03:29:26 AM 40.1206 -89.3372 151° Southeast 497 572 33,000  Level Kansas City Center
Thu 03:30:27 AM 39.9983 -89.2497 151° Southeast 499 574 33,000  Level Kansas City Center
Thu 03:31:27 AM 39.8761 -89.1636 152° Southeast 500 575 33,000  Level Kansas City Center
Thu 03:32:27 AM 39.7525 -89.0775 152° Southeast 502 578 33,000  Level Kansas City Center
Thu 03:33:51 AM 39.6036 -88.9733 152° Southeast 505 581 33,000  Level Kansas City Center
Thu 03:34:52 AM 39.4556 -88.8700 152° Southeast 504 580 33,000  Level Kansas City Center
Thu 03:35:52 AM 39.3394 -88.7908 152° Southeast 498 573 33,000  Level Kansas City Center
Thu 03:36:52 AM 39.2169 -88.7044 151° Southeast 499 574 33,000  Level Kansas City Center
Thu 03:37:53 AM 39.0778 -88.6092 152° Southeast 509 586 33,000  Level Kansas City Center
Thu 03:38:53 AM 38.9528 -88.5242 152° Southeast 508 585 33,000  Level Kansas City Center
Thu 03:39:53 AM 38.8286 -88.4372 151° Southeast 508 585 33,000  Level Kansas City Center
Thu 03:40:54 AM 38.7022 -88.3519 152° Southeast 510 587 33,000  Level Kansas City Center
Thu 03:41:54 AM 38.5778 -88.2681 152° Southeast 507 583 33,000  Level Kansas City Center
Thu 03:42:54 AM 38.4511 -88.1839 153° Southeast 510 587 33,000  Level Kansas City Center
Thu 03:43:43 AM 38.3517 -88.1186 153° Southeast 506 582 33,000  Level Indianapolis Center
Thu 03:44:43 AM 38.2272 -88.0356 152° Southeast 505 581 33,000  Level Indianapolis Center
Thu 03:45:44 AM 38.1019 -87.9522 152° Southeast 508 585 33,000  Level Indianapolis Center
Thu 03:46:44 AM 37.9767 -87.8697 153° Southeast 508 585 33,000  Level Indianapolis Center
Thu 03:47:44 AM 37.8514 -87.7856 152° Southeast 510 587 33,000  Level Indianapolis Center
Thu 03:48:44 AM 37.7178 -87.6975 152° Southeast 510 587 33,000  Level Indianapolis Center
Thu 03:49:44 AM 37.5897 -87.6144 153° Southeast 513 590 33,000  Level Indianapolis Center
Thu 03:50:45 AM 37.4617 -87.5311 153° Southeast 513 590 33,000  Level Indianapolis Center
Thu 03:51:45 AM 37.3317 -87.4481 153° Southeast 517 595 33,000  Level Indianapolis Center
Thu 03:52:45 AM 37.2028 -87.3631 152° Southeast 519 597 33,000  Level Indianapolis Center
Thu 03:53:51 AM 37.0708 -87.2814 154° Southeast 518 596 33,000  Level Memphis Center
Thu 03:54:51 AM 36.9436 -87.1978 152° Southeast 518 596 33,000  Level Memphis Center
Thu 03:55:51 AM 36.8164 -87.1147 152° Southeast 524 603 33,000  Level Memphis Center
Thu 03:56:51 AM 36.6850 -87.0322 153° Southeast 524 603 33,000  Level Memphis Center
Thu 03:57:51 AM 36.5431 -86.9397 152° Southeast 524 603 33,000  Level Memphis Center
Thu 03:58:51 AM 36.4411 -86.8744 153° Southeast 517 595 33,000  Level Memphis Center
Thu 03:59:51 AM 36.2925 -86.7831 154° Southeast 530 610 33,000  Level Memphis Center
Thu 04:00:51 AM 36.1589 -86.6989 153° Southeast 536 617 33,000  Level Memphis Center
Thu 04:01:51 AM 36.0392 -86.5992 146° Southeast 529 609 33,000  Level Memphis Center
Thu 04:02:51 AM 35.9231 -86.4864 142° Southeast 529 609 33,000  Level Memphis Center
Thu 04:04:31 AM 35.7100 -86.3072 146° Southeast 556 640 33,000  Level Atlanta Center
Thu 04:05:31 AM 35.5781 -86.2194 152° Southeast 540 621 33,000  Level Atlanta Center
Thu 04:06:31 AM 35.4625 -86.1450 152° Southeast 526 605 33,000  Level Atlanta Center
Thu 04:07:31 AM 35.3244 -86.0419 149° Southeast 526 605 33,000  Level Atlanta Center
Thu 04:08:31 AM 35.1964 -85.9553 151° Southeast 526 605 33,000  Level Atlanta Center
Thu 04:09:31 AM 35.0828 -85.8839 153° Southeast 521 600 33,000  Level Atlanta Center
Thu 04:10:31 AM 34.9567 -85.7975 151° Southeast 516 594 33,000  Level Atlanta Center
Thu 04:11:31 AM 34.8161 -85.7011 151° Southeast 522 601 33,000  Level Atlanta Center
Thu 04:12:31 AM 34.6878 -85.6125 150° Southeast 522 601 33,000  Level Atlanta Center
Thu 04:13:31 AM 34.5617 -85.5294 152° Southeast 522 601 33,000  Level Atlanta Center
Thu 04:14:31 AM 34.4353 -85.4442 151° Southeast 522 601 33,000  Level Atlanta Center
Thu 04:15:31 AM 34.3131 -85.3592 150° Southeast 511 588 33,000  Level Atlanta Center
Thu 04:16:31 AM 34.1847 -85.2742 151° Southeast 516 594 33,000  Level Atlanta Center
Thu 04:17:31 AM 34.0603 -85.1922 151° Southeast 515 593 33,000  Level Atlanta Center
Thu 04:18:31 AM 33.9336 -85.1103 152° Southeast 515 593 33,000  Level Atlanta Center
Thu 04:19:31 AM 33.8069 -85.0289 152° Southeast 515 593 33,000  Level Atlanta Center
Thu 04:20:31 AM 33.6803 -84.9450 151° Southeast 510 587 33,000  Level Atlanta Center
Thu 04:21:31 AM 33.5536 -84.8614 151° Southeast 510 587 33,000  Level Atlanta Center
Thu 04:22:31 AM 33.4289 -84.7806 152° Southeast 510 587 33,000  Level Atlanta Center
Thu 04:23:31 AM 33.3042 -84.7000 152° Southeast 510 587 33,000  Level Atlanta Center
Thu 04:24:31 AM 33.1772 -84.6172 151° Southeast 510 587 33,000  Level Atlanta Center
Thu 04:25:31 AM 33.0544 -84.5369 151° Southeast 510 587 33,000  Level Atlanta Center
Thu 04:26:31 AM 32.9294 -84.4544 151° Southeast 510 587 33,000  Level Atlanta Center
Thu 04:27:31 AM 32.8044 -84.3775 153° Southeast 510 587 33,000  Level Atlanta Center
Thu 04:28:31 AM 32.6919 -84.3031 151° Southeast 516 594 33,000  Level Atlanta Center
Thu 04:29:31 AM 32.5667 -84.2211 151° Southeast 516 594 33,000  Level Atlanta Center
Thu 04:30:31 AM 32.4417 -84.1397 151° Southeast 516 594 33,000  Level Atlanta Center
Thu 04:31:31 AM 32.3164 -84.0608 152° Southeast 511 588 33,000  Level Atlanta Center
Thu 04:32:31 AM 32.1953 -83.9825 151° Southeast 511 588 33,000  Level Atlanta Center
Thu 04:34:40 AM 31.9147 -83.8056 152° Southeast 500 575 33,000  Level Jacksonville Center
Thu 04:35:40 AM 31.8047 -83.7336 151° Southeast 494 568 33,000  Level Jacksonville Center
Thu 04:36:40 AM 31.6819 -83.6542 151° Southeast 494 568 33,000  Level Jacksonville Center
Thu 04:37:40 AM 31.5531 -83.5800 154° Southeast 504 580 33,000  Level Jacksonville Center
Thu 04:38:40 AM 31.4300 -83.5036 152° Southeast 504 580 33,000  Level Jacksonville Center
Thu 04:39:40 AM 31.3094 -83.4300 152° Southeast 499 574 33,000  Level Jacksonville Center
Thu 04:40:40 AM 31.1864 -83.3539 152° Southeast 499 574 33,000  Level Jacksonville Center
Thu 04:41:40 AM 31.0678 -83.2783 151° Southeast 493 567 33,000  Level Jacksonville Center
Thu 04:42:40 AM 30.9467 -83.2050 153° Southeast 493 567 33,000  Level Jacksonville Center
Thu 04:43:40 AM 30.8239 -83.1297 152° Southeast 493 567 33,000  Level Jacksonville Center
Thu 04:44:40 AM 30.7050 -83.0544 151° Southeast 488 562 33,000  Level Jacksonville Center
Thu 04:45:40 AM 30.5839 -82.9794 152° Southeast 488 562 33,000  Level Jacksonville Center
Thu 04:46:40 AM 30.4628 -82.9047 152° Southeast 493 567 33,000  Level Jacksonville Center
Thu 04:47:40 AM 30.3439 -82.8325 152° Southeast 493 567 33,000  Level Jacksonville Center
Thu 04:48:40 AM 30.2206 -82.7603 153° Southeast 493 567 33,000  Level Jacksonville Center
Thu 04:49:40 AM 30.0994 -82.6861 152° Southeast 493 567 33,000  Level Jacksonville Center
Thu 04:50:40 AM 29.9781 -82.6119 152° Southeast 493 567 33,000  Level Jacksonville Center
Thu 04:51:40 AM 29.8569 -82.5406 153° Southeast 493 567 33,000  Level Jacksonville Center
Thu 04:52:40 AM 29.7333 -82.4692 153° Southeast 493 567 33,000  Level Jacksonville Center
Thu 04:53:40 AM 29.6119 -82.3956 152° Southeast 493 567 33,000  Level Jacksonville Center
Thu 04:54:40 AM 29.4864 -82.3200 152° Southeast 498 573 33,000  Level Jacksonville Center
Thu 04:55:40 AM 29.3608 -82.2469 153° Southeast 503 579 33,000  Level Jacksonville Center
Thu 04:56:40 AM 29.2417 -82.1761 153° Southeast 497 572 33,000  Level Jacksonville Center
Thu 04:57:40 AM 29.1200 -82.1058 153° Southeast 492 566 33,000 -31 Level Jacksonville Center
Thu 04:59:53 AM 28.8486 -81.9508 153° Southeast 480 552 32,900  Descending Miami Center
Thu 05:00:54 AM 28.7281 -81.8789 152° Southeast 480 552 33,000 51 Climbing Miami Center
Thu 05:01:51 AM 28.6097 -81.8075 152° Southeast 480 552 33,000  Level Miami Center
Thu 05:02:52 AM 28.4911 -81.7383 153° Southeast 480 552 33,000 -246 Level Miami Center
Thu 05:03:53 AM 28.3681 -81.6694 154° Southeast 486 559 32,500 -694 Descending Miami Center
Thu 05:04:53 AM 28.2494 -81.6008 153° Southeast 486 559 31,600 -750 Descending Miami Center
Thu 05:05:53 AM 28.1286 -81.5297 153° Southeast 481 554 31,000 -908 Descending Miami Center
Thu 05:06:52 AM 28.0078 -81.4636 154° Southeast 481 554 29,800 -1,361 Descending Miami Center
Thu 05:07:52 AM 27.8889 -81.3953 153° Southeast 481 554 28,300 -1,587 Descending Miami Center
Thu 05:08:53 AM 27.7761 -81.3300 153° Southeast 461 531 26,600 -1,714 Descending Miami Center
Thu 05:09:51 AM 27.6614 -81.2644 153° Southeast 461 531 24,900 -1,563 Descending Miami Center
Thu 05:10:52 AM 27.5506 -81.2017 153° Southeast 461 531 23,500 -1,350 Descending Miami Center
Thu 05:11:51 AM 27.4417 -81.1367 152° Southeast 455 524 22,200 -1,261 Descending Miami Center
Thu 05:12:51 AM 27.3411 -81.0817 154° Southeast 450 518 21,000 -1,289 Descending Miami Center
Thu 05:13:52 AM 27.2383 -81.0242 154° Southeast 432 497 19,600 -1,500 Descending Miami Center
Thu 05:14:51 AM 27.1233 -80.9569 153° Southeast 427 491 18,000 -1,240 Descending Miami Center
Thu 05:15:53 AM 27.0186 -80.8972 153° Southeast 419 482 17,100 -1,200 Descending Miami Center
Thu 05:16:51 AM 26.9281 -80.8478 154° Southeast 414 476 15,600 -1,678 Descending Miami Center
Thu 05:17:51 AM 26.8169 -80.7856 153° Southeast 414 476 13,800 -1,672 Descending Miami Center
Thu 05:18:53 AM 26.7161 -80.7289 153° Southeast 408 470 12,200 -1,500 Descending Miami Center
Thu 05:19:39 AM 26.6400 -80.6892 155° Southeast 380 437 11,100 -1,220 Descending Miami Center
Thu 05:19:52 AM 26.6339 -80.6819 133° Southeast 383 441 11,000 -105 Descending Miami Center
Thu 05:20:36 AM 26.5597 -80.6425 155° Southeast 360 414 11,000  Level Miami Center
Thu 05:20:54 AM 26.5350 -80.6300 156° South 373 429 11,000  Level Miami Center
Thu 05:21:34 AM 26.4692 -80.5931 153° Southeast 355 409 11,000  Level Miami Center
Thu 05:21:52 AM 26.4528 -80.5808 146° Southeast 362 417 11,000 -98 Level Miami Center
Thu 05:22:35 AM 26.3806 -80.5417 154° Southeast 355 409 10,900 -600 Descending Miami Center
Thu 05:22:52 AM 26.3600 -80.5317 156° South 356 410 10,400 -1,082 Descending Miami Center
Thu 05:23:36 AM 26.3025 -80.4997 154° Southeast 309 356 9,800 -915 Descending Miami Center
Thu 05:23:51 AM 26.2900 -80.4925 153° Southeast 328 377 9,500 -1,400 Descending Miami Center
Thu 05:24:36 AM 26.2261 -80.4581 154° Southeast 289 333 8,400 -1,600 Descending Miami Center
Thu 05:24:51 AM 26.2181 -80.4508 141° Southeast 300 345 7,900 -2,000 Descending Miami Center
Thu 05:25:36 AM 26.1561 -80.4211 157° South 289 333 6,400 -1,810 Descending Miami Center
Thu 05:25:54 AM 26.1458 -80.4117 140° Southeast 295 339 6,000 -1,522 Descending Miami Center
Thu 05:26:43 AM 26.0797 -80.3772 155° Southeast 235 270 4,700 -1,448 Descending Miami Center
Thu 05:26:52 AM 26.0839 -80.3753 23° Northeast 283 326 4,600 -783 Descending Miami Center
Thu 05:27:52 AM 26.0350 -80.3275 139° Southeast 250 288 3,800 -1,140 Descending Miami Center
Thu 05:28:53 AM 26.0117 -80.2597 111° Southeast 233 268 2,300 -885 Descending Miami Center
Thu 05:29:54 AM 25.9817 -80.1967 118° Southeast 205 236 2,000 -170 Descending Miami Center
Thu 05:30:39 AM 25.9828 -80.1458 89° East 210 242 2,000 -226 Level Miami Center
Thu 05:31:40 AM 25.9653 -80.0850 108° East 199 229 1,600 -195 Descending Miami Center
Thu 05:32:42 AM 25.9253 -80.1072 207° Southwest 160 184 1,600  Level Miami Center
Thu 05:33:44 AM 25.9117 -80.1531 252° West 158 182 1,600 -238 Level Miami Center
Thu 05:34:48 AM 25.9125 -80.2014 271° West 128 147 1,100 -532 Descending Miami Center
Thu 05:35:48 AM 25.9117 -80.2408 269° West 128 147 500 -600 Descending Miami Center
Thu 05:37:00 AM 25.9000 -80.2667 138° Southeast  Level FlightAware Approximate

Login

Don't have an account? Register now (free) for customized features, flight alerts, and more!